createdAt,value
2017-01-16T00:00:29.056Z,1017.1
2017-01-16T00:01:10.594Z,1017.11
2017-01-16T00:01:52.180Z,1017.07
2017-01-16T00:02:33.777Z,1017.07
2017-01-16T00:03:15.422Z,1017.09
2017-01-16T00:03:57.137Z,1017.09
2017-01-16T00:04:38.897Z,1017.09
2017-01-16T00:05:20.444Z,1017.1
2017-01-16T00:06:02.080Z,1017.07
2017-01-16T00:06:43.798Z,1017.07
2017-01-16T00:07:25.342Z,1017.11
2017-01-16T00:08:06.654Z,1017.04
2017-01-16T00:08:48.416Z,1017.09
2017-01-16T00:09:30.045Z,1017.05
2017-01-16T00:10:11.696Z,1017.06
2017-01-16T00:10:53.422Z,1017.05
2017-01-16T00:11:35.120Z,1017.04
2017-01-16T00:12:16.855Z,1017.03
2017-01-16T00:12:58.598Z,1016.98
2017-01-16T00:13:40.313Z,1017
2017-01-16T00:14:22.042Z,1016.97
2017-01-16T00:15:03.783Z,1016.99
2017-01-16T00:15:45.530Z,1017.02
2017-01-16T00:16:27.263Z,1016.98
2017-01-16T00:17:08.989Z,1016.98
2017-01-16T00:19:24.306Z,1016.96
2017-01-16T00:20:06.002Z,1016.96
2017-01-16T00:22:06.054Z,1016.93
2017-01-16T00:22:47.772Z,1016.94
2017-01-16T00:23:29.551Z,1016.9
2017-01-16T00:24:11.265Z,1016.9
2017-01-16T00:24:52.926Z,1016.92
2017-01-16T00:25:34.656Z,1016.96
2017-01-16T00:26:16.335Z,1016.93
2017-01-16T00:26:58.048Z,1016.91
2017-01-16T00:27:39.669Z,1016.95
2017-01-16T00:28:21.396Z,1016.9
2017-01-16T00:29:03.122Z,1016.95
2017-01-16T00:29:44.888Z,1016.9
2017-01-16T00:30:26.580Z,1016.93
2017-01-16T00:31:08.284Z,1016.96
2017-01-16T00:31:50.023Z,1016.92
2017-01-16T00:32:31.743Z,1016.92
2017-01-16T00:33:13.457Z,1016.9
2017-01-16T00:33:55.132Z,1016.93
2017-01-16T00:34:36.573Z,1016.93
2017-01-16T00:35:18.124Z,1016.92
2017-01-16T00:35:59.932Z,1016.93
2017-01-16T00:37:59.922Z,1016.91
2017-01-16T00:41:44.054Z,1016.9
2017-01-16T00:42:25.776Z,1016.93
2017-01-16T00:43:07.423Z,1016.93
2017-01-16T00:45:22.733Z,1016.91
2017-01-16T00:46:04.454Z,1016.95
2017-01-16T00:47:59.166Z,1016.91
2017-01-16T00:48:40.916Z,1016.93
2017-01-16T00:49:22.677Z,1016.99
2017-01-16T00:51:53.774Z,1016.96
2017-01-16T00:52:35.512Z,1017
2017-01-16T00:53:17.259Z,1016.94
2017-01-16T00:53:58.986Z,1016.94
2017-01-16T00:54:40.713Z,1016.95
2017-01-16T00:57:11.753Z,1016.97
2017-01-16T00:57:53.530Z,1016.95
2017-01-16T00:58:35.237Z,1016.99
2017-01-16T00:59:16.874Z,1017.01
2017-01-16T00:59:58.640Z,1016.96
2017-01-16T01:00:40.350Z,1016.94
2017-01-16T01:01:21.640Z,1016.99
2017-01-16T01:02:02.978Z,1016.96
2017-01-16T01:04:23.649Z,1016.99
2017-01-16T01:06:23.711Z,1017.02
2017-01-16T01:07:05.420Z,1017.01
2017-01-16T01:07:47.187Z,1016.99
2017-01-16T01:08:28.951Z,1017
2017-01-16T01:09:10.662Z,1017
2017-01-16T01:09:52.267Z,1016.98
2017-01-16T01:10:33.842Z,1017.02
2017-01-16T01:11:15.606Z,1016.97
2017-01-16T01:11:57.329Z,1017.01
2017-01-16T01:12:39.049Z,1016.99
2017-01-16T01:13:20.775Z,1017.02
2017-01-16T01:14:02.496Z,1017.01
2017-01-16T01:14:44.215Z,1016.97
2017-01-16T01:17:04.915Z,1016.99
2017-01-16T01:20:49.082Z,1016.94
2017-01-16T01:23:09.769Z,1016.93
2017-01-16T01:23:51.507Z,1016.97
2017-01-16T01:24:33.269Z,1016.93
2017-01-16T01:25:15.025Z,1016.93
2017-01-16T01:25:56.765Z,1016.95
2017-01-16T01:26:38.509Z,1016.92
2017-01-16T01:27:20.244Z,1016.96
2017-01-16T01:28:01.961Z,1016.94
2017-01-16T01:28:43.680Z,1016.9
2017-01-16T01:29:25.470Z,1016.94
2017-01-16T01:30:07.204Z,1016.94
2017-01-16T01:30:48.940Z,1016.95
2017-01-16T01:31:30.701Z,1016.96
2017-01-16T01:32:12.458Z,1016.99
2017-01-16T01:32:54.150Z,1016.99
2017-01-16T01:33:35.901Z,1016.99
2017-01-16T01:36:06.880Z,1017.04
2017-01-16T01:36:48.585Z,1017.02
2017-01-16T01:37:30.291Z,1017.08
2017-01-16T01:38:12.009Z,1017.09
2017-01-16T01:38:53.744Z,1017.1
2017-01-16T01:39:35.505Z,1017.05
2017-01-16T01:40:17.216Z,1017
2017-01-16T01:40:59.004Z,1017.02
2017-01-16T01:41:40.600Z,1017.06
2017-01-16T01:42:22.237Z,1017.02
2017-01-16T01:43:03.879Z,1017.05
2017-01-16T01:43:45.519Z,1017.04
2017-01-16T01:44:27.220Z,1017.05
2017-01-16T01:45:08.947Z,1017.06
2017-01-16T01:45:50.634Z,1017.05
2017-01-16T01:46:32.294Z,1017.06
2017-01-16T01:47:13.970Z,1017.04
2017-01-16T01:47:55.710Z,1017.04
2017-01-16T01:48:37.436Z,1017.02
2017-01-16T01:49:19.140Z,1017.02
2017-01-16T01:50:00.835Z,1017.05
2017-01-16T01:50:42.378Z,1017.04
2017-01-16T01:51:24.114Z,1017.05
2017-01-16T01:52:05.591Z,1017.04
2017-01-16T01:52:47.296Z,1017.05
2017-01-16T01:53:29.023Z,1017.06
2017-01-16T01:55:29.059Z,1017.04
2017-01-16T01:58:00.205Z,1017.06
2017-01-16T01:58:41.960Z,1017.05
2017-01-16T01:59:23.658Z,1017.1
2017-01-16T02:00:04.435Z,1017.09
2017-01-16T02:00:44.962Z,1017.08
2017-01-16T02:01:25.509Z,1017.12
2017-01-16T02:02:06.046Z,1017.13
2017-01-16T02:02:46.576Z,1017.08
2017-01-16T02:03:27.102Z,1017.08
2017-01-16T02:04:07.629Z,1017.09
2017-01-16T02:04:48.151Z,1017.11
2017-01-16T02:05:28.674Z,1017.1
2017-01-16T02:06:09.185Z,1017.1
2017-01-16T02:06:49.712Z,1017.1
2017-01-16T02:07:30.242Z,1017.07
2017-01-16T02:08:10.776Z,1017.07
2017-01-16T02:08:51.308Z,1017.07
2017-01-16T02:09:31.833Z,1017.06
2017-01-16T02:10:12.354Z,1017.04
2017-01-16T02:10:52.881Z,1017.09
2017-01-16T02:11:33.402Z,1017.03
2017-01-16T02:12:13.921Z,1017.05
2017-01-16T02:12:54.457Z,1017.05
2017-01-16T02:13:34.984Z,1017.09
2017-01-16T02:14:15.522Z,1017.11
2017-01-16T02:14:56.055Z,1017.09
2017-01-16T02:15:36.581Z,1017.11
2017-01-16T02:16:17.103Z,1017.11
2017-01-16T02:16:57.636Z,1017.12
2017-01-16T02:17:38.170Z,1017.15
2017-01-16T02:18:18.703Z,1017.14
2017-01-16T02:18:59.230Z,1017.11
2017-01-16T02:19:39.757Z,1017.15
2017-01-16T02:20:20.295Z,1017.18
2017-01-16T02:21:00.832Z,1017.13
2017-01-16T02:21:41.359Z,1017.16
2017-01-16T02:22:21.890Z,1017.15
2017-01-16T02:23:02.412Z,1017.18
2017-01-16T02:23:42.946Z,1017.18
2017-01-16T02:24:23.481Z,1017.17
2017-01-16T02:25:04.018Z,1017.22
2017-01-16T02:25:44.552Z,1017.2
2017-01-16T02:26:25.064Z,1017.21
2017-01-16T02:27:05.599Z,1017.22
2017-01-16T02:27:46.136Z,1017.26
2017-01-16T02:28:26.669Z,1017.25
2017-01-16T02:29:07.193Z,1017.19
2017-01-16T02:29:47.722Z,1017.2
2017-01-16T02:30:28.252Z,1017.21
2017-01-16T02:31:08.788Z,1017.18
2017-01-16T02:31:49.321Z,1017.17
2017-01-16T02:32:29.845Z,1017.2
2017-01-16T02:33:10.374Z,1017.2
2017-01-16T02:33:50.902Z,1017.16
2017-01-16T02:34:31.445Z,1017.22
2017-01-16T02:35:11.975Z,1017.21
2017-01-16T02:35:52.493Z,1017.23
2017-01-16T02:36:33.027Z,1017.24
2017-01-16T02:37:13.560Z,1017.24
2017-01-16T02:37:54.093Z,1017.23
2017-01-16T02:38:34.623Z,1017.24
2017-01-16T02:39:15.151Z,1017.24
2017-01-16T02:39:55.681Z,1017.23
2017-01-16T02:40:36.212Z,1017.23
2017-01-16T02:41:16.743Z,1017.21
2017-01-16T02:41:57.275Z,1017.23
2017-01-16T02:42:37.802Z,1017.22
2017-01-16T02:43:18.340Z,1017.23
2017-01-16T02:43:58.870Z,1017.2
2017-01-16T02:44:39.409Z,1017.22
2017-01-16T02:45:19.948Z,1017.25
2017-01-16T02:46:00.481Z,1017.24
2017-01-16T02:46:41.008Z,1017.2
2017-01-16T02:47:21.542Z,1017.23
2017-01-16T02:48:02.067Z,1017.24
2017-01-16T02:48:42.599Z,1017.21
2017-01-16T02:49:23.132Z,1017.21
2017-01-16T02:50:03.649Z,1017.22
2017-01-16T02:50:44.178Z,1017.2
2017-01-16T02:51:24.757Z,1017.23
2017-01-16T02:52:05.747Z,1017.22
2017-01-16T02:52:46.777Z,1017.26
2017-01-16T02:53:27.798Z,1017.23
2017-01-16T02:54:08.337Z,1017.23
2017-01-16T02:54:48.879Z,1017.21
2017-01-16T02:55:29.415Z,1017.25
2017-01-16T02:56:09.937Z,1017.21
2017-01-16T02:56:50.450Z,1017.21
2017-01-16T02:57:30.985Z,1017.24
2017-01-16T02:58:11.505Z,1017.24
2017-01-16T02:58:52.033Z,1017.23
2017-01-16T02:59:32.566Z,1017.23
2017-01-16T03:00:13.096Z,1017.27
2017-01-16T03:00:53.624Z,1017.27
2017-01-16T03:01:34.154Z,1017.27
2017-01-16T03:02:14.680Z,1017.29
2017-01-16T03:02:55.207Z,1017.3
2017-01-16T03:03:35.738Z,1017.26
2017-01-16T03:04:16.273Z,1017.28
2017-01-16T03:04:56.798Z,1017.28
2017-01-16T03:05:37.328Z,1017.37
2017-01-16T03:06:17.847Z,1017.33
2017-01-16T03:06:58.379Z,1017.33
2017-01-16T03:07:38.899Z,1017.36
2017-01-16T03:08:19.427Z,1017.33
2017-01-16T03:08:59.957Z,1017.31
2017-01-16T03:09:40.495Z,1017.34
2017-01-16T03:10:21.022Z,1017.33
2017-01-16T03:11:01.553Z,1017.33
2017-01-16T03:11:42.085Z,1017.34
2017-01-16T03:12:22.619Z,1017.34
2017-01-16T03:13:03.142Z,1017.32
2017-01-16T03:13:43.672Z,1017.34
2017-01-16T03:14:24.202Z,1017.34
2017-01-16T03:15:04.736Z,1017.35
2017-01-16T03:15:45.262Z,1017.35
2017-01-16T03:16:25.795Z,1017.34
2017-01-16T03:17:06.331Z,1017.31
2017-01-16T03:17:46.855Z,1017.29
2017-01-16T03:18:27.388Z,1017.34
2017-01-16T03:19:07.920Z,1017.3
2017-01-16T03:19:48.454Z,1017.3
2017-01-16T03:20:28.991Z,1017.29
2017-01-16T03:21:09.514Z,1017.31
2017-01-16T03:21:50.039Z,1017.29
2017-01-16T03:22:30.572Z,1017.27
2017-01-16T03:23:11.103Z,1017.21
2017-01-16T03:23:51.631Z,1017.24
2017-01-16T03:24:32.151Z,1017.23
2017-01-16T03:25:12.674Z,1017.22
2017-01-16T03:25:53.205Z,1017.19
2017-01-16T03:26:33.735Z,1017.19
2017-01-16T03:27:14.252Z,1017.27
2017-01-16T03:27:54.783Z,1017.25
2017-01-16T03:28:35.312Z,1017.27
2017-01-16T03:29:15.840Z,1017.29
2017-01-16T03:29:56.374Z,1017.29
2017-01-16T03:30:36.891Z,1017.25
2017-01-16T03:31:17.415Z,1017.3
2017-01-16T03:31:57.953Z,1017.29
2017-01-16T03:32:38.488Z,1017.31
2017-01-16T03:33:19.012Z,1017.32
2017-01-16T03:33:59.542Z,1017.33
2017-01-16T03:34:40.067Z,1017.38
2017-01-16T03:35:20.601Z,1017.36
2017-01-16T03:36:01.135Z,1017.35
2017-01-16T03:36:41.656Z,1017.37
2017-01-16T03:37:22.186Z,1017.35
2017-01-16T03:38:02.714Z,1017.34
2017-01-16T03:38:43.244Z,1017.33
2017-01-16T03:39:23.772Z,1017.34
2017-01-16T03:40:04.296Z,1017.35
2017-01-16T03:40:44.834Z,1017.38
2017-01-16T03:41:25.362Z,1017.36
2017-01-16T03:42:05.898Z,1017.4
2017-01-16T03:42:46.426Z,1017.41
2017-01-16T03:43:26.956Z,1017.38
2017-01-16T03:44:07.486Z,1017.39
2017-01-16T03:44:48.020Z,1017.41
2017-01-16T03:45:28.555Z,1017.44
2017-01-16T03:46:09.073Z,1017.41
2017-01-16T03:46:49.601Z,1017.42
2017-01-16T03:47:30.134Z,1017.44
2017-01-16T03:48:10.667Z,1017.42
2017-01-16T03:48:51.199Z,1017.41
2017-01-16T03:49:31.713Z,1017.4
2017-01-16T03:50:12.233Z,1017.42
2017-01-16T03:50:52.767Z,1017.45
2017-01-16T03:51:33.299Z,1017.46
2017-01-16T03:52:13.821Z,1017.46
2017-01-16T03:52:54.347Z,1017.44
2017-01-16T03:53:34.880Z,1017.46
2017-01-16T03:54:15.408Z,1017.48
2017-01-16T03:54:55.946Z,1017.44
2017-01-16T03:55:36.474Z,1017.41
2017-01-16T03:56:16.997Z,1017.47
2017-01-16T03:56:57.534Z,1017.44
2017-01-16T03:57:38.068Z,1017.48
2017-01-16T03:58:18.603Z,1017.43
2017-01-16T03:58:59.125Z,1017.45
2017-01-16T03:59:39.655Z,1017.45
2017-01-16T04:00:20.186Z,1017.43
2017-01-16T04:01:00.721Z,1017.47
2017-01-16T04:01:41.229Z,1017.45
2017-01-16T04:02:21.757Z,1017.45
2017-01-16T04:03:02.291Z,1017.45
2017-01-16T04:03:42.864Z,1017.47
2017-01-16T04:04:23.390Z,1017.44
2017-01-16T04:05:03.923Z,1017.42
2017-01-16T04:05:44.453Z,1017.43
2017-01-16T04:06:24.974Z,1017.43
2017-01-16T04:07:05.511Z,1017.41
2017-01-16T04:07:46.047Z,1017.44
2017-01-16T04:08:26.574Z,1017.4
2017-01-16T04:09:07.101Z,1017.39
2017-01-16T04:09:47.633Z,1017.38
2017-01-16T04:10:28.162Z,1017.41
2017-01-16T04:11:08.691Z,1017.41
2017-01-16T04:11:49.229Z,1017.4
2017-01-16T04:12:29.770Z,1017.42
2017-01-16T04:13:10.303Z,1017.41
2017-01-16T04:13:50.825Z,1017.38
2017-01-16T04:14:31.366Z,1017.42
2017-01-16T04:15:11.894Z,1017.41
2017-01-16T04:15:52.433Z,1017.4
2017-01-16T04:16:32.961Z,1017.43
2017-01-16T04:17:13.490Z,1017.41
2017-01-16T04:17:54.032Z,1017.4
2017-01-16T04:18:34.562Z,1017.45
2017-01-16T04:19:15.102Z,1017.44
2017-01-16T04:19:55.630Z,1017.4
2017-01-16T04:20:36.142Z,1017.42
2017-01-16T04:21:16.683Z,1017.42
2017-01-16T04:21:57.202Z,1017.45
2017-01-16T04:22:37.732Z,1017.41
2017-01-16T04:23:18.269Z,1017.44
2017-01-16T04:23:58.794Z,1017.41
2017-01-16T04:24:39.321Z,1017.43
2017-01-16T04:25:19.851Z,1017.41
2017-01-16T04:26:00.390Z,1017.42
2017-01-16T04:26:40.915Z,1017.43
2017-01-16T04:27:21.444Z,1017.42
2017-01-16T04:28:01.957Z,1017.4
2017-01-16T04:28:42.497Z,1017.39
2017-01-16T04:29:23.030Z,1017.37
2017-01-16T04:30:03.539Z,1017.41
2017-01-16T04:30:44.082Z,1017.41
2017-01-16T04:31:24.610Z,1017.44
2017-01-16T04:32:05.143Z,1017.45
2017-01-16T04:32:45.676Z,1017.44
2017-01-16T04:33:26.196Z,1017.47
2017-01-16T04:34:06.721Z,1017.47
2017-01-16T04:34:47.257Z,1017.46
2017-01-16T04:35:27.801Z,1017.49
2017-01-16T04:36:08.348Z,1017.46
2017-01-16T04:36:48.885Z,1017.45
2017-01-16T04:37:29.407Z,1017.43
2017-01-16T04:38:09.947Z,1017.46
2017-01-16T04:38:50.480Z,1017.46
2017-01-16T04:39:31.008Z,1017.51
2017-01-16T04:40:11.539Z,1017.46
2017-01-16T04:40:52.075Z,1017.44
2017-01-16T04:41:32.607Z,1017.43
2017-01-16T04:42:13.134Z,1017.45
2017-01-16T04:42:53.666Z,1017.46
2017-01-16T04:43:34.183Z,1017.46
2017-01-16T04:44:14.700Z,1017.46
2017-01-16T04:44:55.236Z,1017.46
2017-01-16T04:45:35.765Z,1017.46
2017-01-16T04:46:16.298Z,1017.46
2017-01-16T04:46:56.833Z,1017.49
2017-01-16T04:47:37.355Z,1017.49
2017-01-16T04:48:17.885Z,1017.5
2017-01-16T04:48:58.415Z,1017.52
2017-01-16T04:49:38.967Z,1017.5
2017-01-16T04:50:19.493Z,1017.52
2017-01-16T04:51:00.048Z,1017.52
2017-01-16T04:51:40.638Z,1017.52
2017-01-16T04:52:21.239Z,1017.54
2017-01-16T04:53:01.791Z,1017.51
2017-01-16T04:53:42.310Z,1017.52
2017-01-16T04:54:22.856Z,1017.55
2017-01-16T04:55:03.393Z,1017.54
2017-01-16T04:55:43.922Z,1017.56
2017-01-16T04:56:24.489Z,1017.58
2017-01-16T04:57:05.040Z,1017.57
2017-01-16T04:57:45.597Z,1017.53
2017-01-16T04:58:26.173Z,1017.56
2017-01-16T04:59:06.709Z,1017.56
2017-01-16T04:59:49.821Z,1017.55
2017-01-16T05:00:30.354Z,1017.55
2017-01-16T05:01:10.890Z,1017.58
2017-01-16T05:01:51.447Z,1017.57
2017-01-16T05:02:31.983Z,1017.56
2017-01-16T05:03:12.520Z,1017.53
2017-01-16T05:03:53.059Z,1017.58
2017-01-16T05:04:33.593Z,1017.59
2017-01-16T05:05:14.124Z,1017.59
2017-01-16T05:05:54.655Z,1017.58
2017-01-16T05:06:35.194Z,1017.56
2017-01-16T05:07:15.716Z,1017.54
2017-01-16T05:07:56.245Z,1017.54
2017-01-16T05:08:36.781Z,1017.54
2017-01-16T05:09:17.343Z,1017.54
2017-01-16T05:09:57.868Z,1017.55
2017-01-16T05:10:38.398Z,1017.56
2017-01-16T05:11:18.937Z,1017.55
2017-01-16T05:11:59.492Z,1017.6
2017-01-16T05:12:40.061Z,1017.62
2017-01-16T05:13:20.600Z,1017.59
2017-01-16T05:14:01.129Z,1017.62
2017-01-16T05:14:41.660Z,1017.65
2017-01-16T05:15:22.186Z,1017.64
2017-01-16T05:16:02.714Z,1017.61
2017-01-16T05:16:43.279Z,1017.6
2017-01-16T05:17:23.828Z,1017.63
2017-01-16T05:18:04.357Z,1017.65
2017-01-16T05:18:44.897Z,1017.63
2017-01-16T05:19:25.424Z,1017.69
2017-01-16T05:20:05.949Z,1017.7
2017-01-16T05:20:46.481Z,1017.67
2017-01-16T05:21:27.033Z,1017.7
2017-01-16T05:22:07.564Z,1017.71
2017-01-16T05:22:48.102Z,1017.7
2017-01-16T05:23:28.637Z,1017.71
2017-01-16T05:24:09.171Z,1017.73
2017-01-16T05:24:49.682Z,1017.72
2017-01-16T05:25:30.220Z,1017.72
2017-01-16T05:26:10.752Z,1017.74
2017-01-16T05:26:51.289Z,1017.74
2017-01-16T05:27:31.840Z,1017.75
2017-01-16T05:28:12.376Z,1017.74
2017-01-16T05:28:52.896Z,1017.77
2017-01-16T05:29:33.427Z,1017.77
2017-01-16T05:30:13.986Z,1017.79
2017-01-16T05:30:54.519Z,1017.76
2017-01-16T05:31:35.133Z,1017.79
2017-01-16T05:32:15.659Z,1017.78
2017-01-16T05:32:56.194Z,1017.8
2017-01-16T05:33:36.756Z,1017.76
2017-01-16T05:34:17.289Z,1017.79
2017-01-16T05:34:57.824Z,1017.81
2017-01-16T05:35:38.351Z,1017.79
2017-01-16T05:36:18.865Z,1017.79
2017-01-16T05:36:59.394Z,1017.81
2017-01-16T05:37:39.945Z,1017.82
2017-01-16T05:38:20.472Z,1017.81
2017-01-16T05:39:01.005Z,1017.84
2017-01-16T05:39:41.513Z,1017.86
2017-01-16T05:40:22.045Z,1017.84
2017-01-16T05:41:02.574Z,1017.85
2017-01-16T05:41:43.107Z,1017.82
2017-01-16T05:42:23.645Z,1017.82
2017-01-16T05:43:04.157Z,1017.78
2017-01-16T05:43:44.687Z,1017.85
2017-01-16T05:44:25.224Z,1017.82
2017-01-16T05:45:05.764Z,1017.83
2017-01-16T05:45:46.302Z,1017.81
2017-01-16T05:46:26.827Z,1017.86
2017-01-16T05:47:07.355Z,1017.82
2017-01-16T05:47:47.891Z,1017.83
2017-01-16T05:48:28.436Z,1017.81
2017-01-16T05:49:08.968Z,1017.82
2017-01-16T05:49:49.534Z,1017.84
2017-01-16T05:50:30.056Z,1017.85
2017-01-16T05:51:10.561Z,1017.85
2017-01-16T05:51:51.094Z,1017.82
2017-01-16T05:52:31.620Z,1017.84
2017-01-16T05:53:12.141Z,1017.85
2017-01-16T05:53:52.663Z,1017.87
2017-01-16T05:54:33.202Z,1017.86
2017-01-16T05:55:13.731Z,1017.86
2017-01-16T05:55:54.271Z,1017.89
2017-01-16T05:56:34.801Z,1017.93
2017-01-16T05:57:15.374Z,1017.91
2017-01-16T05:57:55.904Z,1017.89
2017-01-16T05:58:36.428Z,1017.93
2017-01-16T05:59:16.964Z,1017.98
2017-01-16T05:59:57.493Z,1018.01
2017-01-16T06:00:38.027Z,1018.02
2017-01-16T06:01:18.572Z,1017.99
2017-01-16T06:01:59.089Z,1018
2017-01-16T06:02:39.616Z,1018.03
2017-01-16T06:03:20.159Z,1018
2017-01-16T06:04:00.687Z,1018.01
2017-01-16T06:04:41.226Z,1018.03
2017-01-16T06:05:21.769Z,1018.04
2017-01-16T06:06:02.316Z,1018.02
2017-01-16T06:06:42.837Z,1018.02
2017-01-16T06:07:23.366Z,1018.05
2017-01-16T06:08:03.892Z,1018.02
2017-01-16T06:08:44.470Z,1018.05
2017-01-16T06:09:25.004Z,1018.08
2017-01-16T06:10:05.513Z,1018.09
2017-01-16T06:10:46.025Z,1018.11
2017-01-16T06:11:26.546Z,1018.1
2017-01-16T06:12:07.086Z,1018.12
2017-01-16T06:12:47.645Z,1018.14
2017-01-16T06:13:28.174Z,1018.11
2017-01-16T06:14:08.714Z,1018.14
2017-01-16T06:14:49.236Z,1018.15
2017-01-16T06:15:29.759Z,1018.17
2017-01-16T06:16:10.278Z,1018.15
2017-01-16T06:16:50.822Z,1018.16
2017-01-16T06:17:31.405Z,1018.2
2017-01-16T06:18:11.940Z,1018.18
2017-01-16T06:18:52.477Z,1018.24
2017-01-16T06:19:33.013Z,1018.22
2017-01-16T06:20:13.586Z,1018.19
2017-01-16T06:20:54.120Z,1018.23
2017-01-16T06:21:34.679Z,1018.23
2017-01-16T06:22:15.251Z,1018.21
2017-01-16T06:22:55.790Z,1018.25
2017-01-16T06:23:36.318Z,1018.25
2017-01-16T06:24:16.846Z,1018.24
2017-01-16T06:24:57.400Z,1018.24
2017-01-16T06:25:37.955Z,1018.23
2017-01-16T06:26:18.492Z,1018.24
2017-01-16T06:26:59.031Z,1018.25
2017-01-16T06:27:39.591Z,1018.24
2017-01-16T06:28:20.123Z,1018.26
2017-01-16T06:29:00.661Z,1018.27
2017-01-16T06:29:41.216Z,1018.26
2017-01-16T06:32:00.544Z,1018.28
2017-01-16T06:32:41.065Z,1018.28
2017-01-16T06:33:21.599Z,1018.27
2017-01-16T06:34:02.133Z,1018.3
2017-01-16T06:34:42.660Z,1018.29
2017-01-16T06:35:23.241Z,1018.31
2017-01-16T06:36:03.780Z,1018.28
2017-01-16T06:36:44.332Z,1018.29
2017-01-16T06:37:24.869Z,1018.31
2017-01-16T06:38:05.370Z,1018.32
2017-01-16T06:38:45.898Z,1018.35
2017-01-16T06:39:26.435Z,1018.34
2017-01-16T06:40:06.957Z,1018.33
2017-01-16T06:40:47.477Z,1018.33
2017-01-16T06:41:28.011Z,1018.3
2017-01-16T06:42:08.548Z,1018.32
2017-01-16T06:42:49.072Z,1018.34
2017-01-16T06:43:29.582Z,1018.34
2017-01-16T06:44:10.121Z,1018.36
2017-01-16T06:44:50.646Z,1018.34
2017-01-16T06:45:31.178Z,1018.36
2017-01-16T06:46:11.714Z,1018.35
2017-01-16T06:46:52.234Z,1018.41
2017-01-16T06:47:32.761Z,1018.4
2017-01-16T06:48:13.289Z,1018.41
2017-01-16T06:48:53.864Z,1018.45
2017-01-16T06:49:34.391Z,1018.46
2017-01-16T06:50:14.926Z,1018.49
2017-01-16T06:50:55.459Z,1018.5
2017-01-16T06:51:35.965Z,1018.47
2017-01-16T06:52:16.497Z,1018.53
2017-01-16T06:52:57.029Z,1018.48
2017-01-16T06:53:37.539Z,1018.56
2017-01-16T06:54:18.061Z,1018.55
2017-01-16T06:54:58.600Z,1018.53
2017-01-16T06:55:39.155Z,1018.59
2017-01-16T06:56:19.678Z,1018.56
2017-01-16T06:57:00.221Z,1018.56
2017-01-16T06:57:40.772Z,1018.56
2017-01-16T06:58:21.286Z,1018.56
2017-01-16T06:59:01.815Z,1018.56
2017-01-16T06:59:42.344Z,1018.62
2017-01-16T07:00:22.881Z,1018.61
2017-01-16T07:01:03.442Z,1018.63
2017-01-16T07:01:43.981Z,1018.63
2017-01-16T07:02:24.493Z,1018.63
2017-01-16T07:03:05.023Z,1018.62
2017-01-16T07:03:45.641Z,1018.61
2017-01-16T07:04:26.210Z,1018.65
2017-01-16T07:05:06.753Z,1018.62
2017-01-16T07:05:47.309Z,1018.63
2017-01-16T07:06:27.843Z,1018.61
2017-01-16T07:07:08.384Z,1018.59
2017-01-16T07:07:48.920Z,1018.62
2017-01-16T07:08:29.443Z,1018.64
2017-01-16T07:09:09.970Z,1018.6
2017-01-16T07:09:50.507Z,1018.65
2017-01-16T07:10:31.066Z,1018.67
2017-01-16T07:11:11.605Z,1018.68
2017-01-16T07:11:52.180Z,1018.7
2017-01-16T07:12:32.712Z,1018.67
2017-01-16T07:13:13.287Z,1018.68
2017-01-16T07:13:53.809Z,1018.68
2017-01-16T07:14:34.314Z,1018.7
2017-01-16T07:15:14.881Z,1018.65
2017-01-16T07:15:55.445Z,1018.68
2017-01-16T07:16:35.957Z,1018.67
2017-01-16T07:17:16.519Z,1018.64
2017-01-16T07:17:57.046Z,1018.68
2017-01-16T07:18:37.576Z,1018.72
2017-01-16T07:19:18.109Z,1018.69
2017-01-16T07:19:58.670Z,1018.72
2017-01-16T07:20:39.214Z,1018.77
2017-01-16T07:21:19.768Z,1018.79
2017-01-16T07:22:00.327Z,1018.75
2017-01-16T07:22:40.861Z,1018.74
2017-01-16T07:23:21.387Z,1018.69
2017-01-16T07:24:01.922Z,1018.74
2017-01-16T07:24:42.455Z,1018.78
2017-01-16T07:25:22.994Z,1018.76
2017-01-16T07:26:03.558Z,1018.79
2017-01-16T07:26:44.096Z,1018.8
2017-01-16T07:27:24.634Z,1018.82
2017-01-16T07:28:05.176Z,1018.81
2017-01-16T07:28:45.724Z,1018.81
2017-01-16T07:29:26.283Z,1018.82
2017-01-16T07:30:06.816Z,1018.82
2017-01-16T07:30:47.368Z,1018.91
2017-01-16T07:31:27.883Z,1018.87
2017-01-16T07:32:08.413Z,1018.9
2017-01-16T07:32:48.928Z,1018.89
2017-01-16T07:33:29.491Z,1018.89
2017-01-16T07:34:10.033Z,1018.94
2017-01-16T07:34:50.601Z,1018.93
2017-01-16T07:35:31.142Z,1018.94
2017-01-16T07:36:11.656Z,1018.97
2017-01-16T07:36:52.192Z,1018.96
2017-01-16T07:37:32.723Z,1018.95
2017-01-16T07:38:13.243Z,1018.99
2017-01-16T07:38:53.781Z,1018.98
2017-01-16T07:39:34.321Z,1018.96
2017-01-16T07:40:14.843Z,1018.98
2017-01-16T07:40:55.358Z,1019
2017-01-16T07:41:35.892Z,1018.99
2017-01-16T07:42:16.425Z,1019.02
2017-01-16T07:42:56.948Z,1019.01
2017-01-16T07:43:37.490Z,1019.07
2017-01-16T07:44:18.009Z,1019.04
2017-01-16T07:44:58.542Z,1019.02
2017-01-16T07:45:39.079Z,1019.02
2017-01-16T07:46:19.603Z,1019.05
2017-01-16T07:47:00.129Z,1019.07
2017-01-16T07:47:40.660Z,1019.02
2017-01-16T07:48:21.189Z,1019.07
2017-01-16T07:49:01.716Z,1019.06
2017-01-16T07:49:42.235Z,1019.07
2017-01-16T07:50:22.758Z,1019.08
2017-01-16T07:51:03.310Z,1019.1
2017-01-16T07:51:43.845Z,1019.1
2017-01-16T07:52:24.379Z,1019.09
2017-01-16T07:53:04.919Z,1019.08
2017-01-16T07:53:45.420Z,1019.11
2017-01-16T07:54:25.965Z,1019.11
2017-01-16T07:55:06.496Z,1019.11
2017-01-16T07:55:47.046Z,1019.12
2017-01-16T07:56:27.580Z,1019.16
2017-01-16T07:57:08.110Z,1019.15
2017-01-16T07:57:48.686Z,1019.17
2017-01-16T07:58:29.219Z,1019.17
2017-01-16T07:59:09.738Z,1019.19
2017-01-16T07:59:50.267Z,1019.16
2017-01-16T08:00:30.792Z,1019.19
2017-01-16T08:01:11.325Z,1019.2
2017-01-16T08:01:51.841Z,1019.19
2017-01-16T08:02:32.394Z,1019.23
2017-01-16T08:03:12.922Z,1019.24
2017-01-16T08:03:53.448Z,1019.27
2017-01-16T08:04:33.980Z,1019.28
2017-01-16T08:05:14.503Z,1019.25
2017-01-16T08:05:55.057Z,1019.29
2017-01-16T08:06:35.591Z,1019.28
2017-01-16T08:07:16.107Z,1019.29
2017-01-16T08:07:56.645Z,1019.3
2017-01-16T08:08:37.183Z,1019.32
2017-01-16T08:09:17.717Z,1019.33
2017-01-16T08:09:58.222Z,1019.31
2017-01-16T08:10:38.752Z,1019.35
2017-01-16T08:11:19.298Z,1019.33
2017-01-16T08:11:59.830Z,1019.31
2017-01-16T08:12:40.352Z,1019.32
2017-01-16T08:13:20.874Z,1019.32
2017-01-16T08:14:01.406Z,1019.35
2017-01-16T08:14:41.930Z,1019.31
2017-01-16T08:15:22.445Z,1019.33
2017-01-16T08:16:02.982Z,1019.35
2017-01-16T08:16:43.504Z,1019.37
2017-01-16T08:17:24.028Z,1019.33
2017-01-16T08:18:04.553Z,1019.35
2017-01-16T08:18:45.074Z,1019.38
2017-01-16T08:19:25.611Z,1019.36
2017-01-16T08:20:06.133Z,1019.4
2017-01-16T08:20:46.675Z,1019.37
2017-01-16T08:21:27.276Z,1019.39
2017-01-16T08:22:07.807Z,1019.36
2017-01-16T08:22:48.362Z,1019.33
2017-01-16T08:23:28.938Z,1019.37
2017-01-16T08:24:09.490Z,1019.38
2017-01-16T08:24:50.033Z,1019.4
2017-01-16T08:25:30.591Z,1019.42
2017-01-16T08:26:11.119Z,1019.41
2017-01-16T08:26:51.655Z,1019.41
2017-01-16T08:27:32.183Z,1019.42
2017-01-16T08:28:12.687Z,1019.43
2017-01-16T08:28:53.239Z,1019.44
2017-01-16T08:29:33.761Z,1019.42
2017-01-16T08:30:14.283Z,1019.39
2017-01-16T08:30:54.800Z,1019.43
2017-01-16T08:31:35.366Z,1019.46
2017-01-16T08:32:15.892Z,1019.45
2017-01-16T08:32:56.413Z,1019.49
2017-01-16T08:33:37.024Z,1019.5
2017-01-16T08:34:17.540Z,1019.5
2017-01-16T08:34:58.065Z,1019.51
2017-01-16T08:35:38.625Z,1019.51
2017-01-16T08:36:19.147Z,1019.52
2017-01-16T08:36:59.673Z,1019.52
2017-01-16T08:37:40.208Z,1019.53
2017-01-16T08:38:20.733Z,1019.52
2017-01-16T08:39:01.314Z,1019.51
2017-01-16T08:39:41.846Z,1019.49
2017-01-16T08:40:22.370Z,1019.56
2017-01-16T08:41:02.917Z,1019.54
2017-01-16T08:41:43.446Z,1019.53
2017-01-16T08:42:23.971Z,1019.53
2017-01-16T08:43:04.496Z,1019.56
2017-01-16T08:43:45.024Z,1019.58
2017-01-16T08:44:25.604Z,1019.58